Time;durP1;ratioP1;P1;durP2;ratioP2;P2;SDS_P1;SDS_P2;PMS_P1;PMS_P2;Temp;Humidity;BMP_temperature;BMP_pressure;BME280_temperature;BME280_humidity;BME280_pressure;Samples;Min_cycle;Max_cycle;Signal;HPM_P1;HPM_P2
2021/07/12 00:01:41;;;;;;;1.27;1.27;;;;;;;16.48;74.09;100030.50;6263972;23;20055;-75
2021/07/12 00:04:06;;;;;;;1.40;1.35;;;;;;;16.47;74.04;100021.41;6261302;23;20004;-74
2021/07/12 00:06:32;;;;;;;1.15;1.15;;;;;;;16.51;74.24;100024.34;6198304;23;20194;-75
2021/07/12 00:08:57;;;;;;;0.98;0.98;;;;;;;16.50;74.22;100011.66;6218563;23;20095;-76
2021/07/12 00:11:22;;;;;;;1.00;1.00;;;;;;;16.53;74.17;100011.06;6163478;23;20027;-75
2021/07/12 00:13:50;;;;;;;1.40;1.40;;;;;;;16.53;73.75;100011.88;6216997;23;20008;-77
2021/07/12 00:16:16;;;;;;;1.75;1.65;;;;;;;16.50;73.80;100006.97;6217800;23;20015;-77
2021/07/12 00:18:42;;;;;;;1.10;1.10;;;;;;;16.51;73.80;100007.78;6243633;23;20020;-76
2021/07/12 00:21:07;;;;;;;1.30;1.30;;;;;;;16.49;73.66;100005.34;6240806;23;20121;-76
2021/07/12 00:23:33;;;;;;;1.75;1.65;;;;;;;16.46;74.05;100005.19;6243602;23;20069;-75
2021/07/12 00:25:58;;;;;;;1.20;1.20;;;;;;;16.39;73.82;100011.94;6216287;23;20015;-79
2021/07/12 00:28:24;;;;;;;1.70;1.60;;;;;;;16.30;73.65;99993.72;6166809;23;20008;-80
2021/07/12 00:30:50;;;;;;;0.93;0.93;;;;;;;16.29;74.21;100009.44;6188409;23;20012;-81
2021/07/12 00:33:25;;;;;;;;;;;;;;;;;;;;;
2021/07/12 00:35:51;;;;;;;0.65;0.65;;;;;;;16.27;74.15;100003.44;6244179;23;20079;-79
2021/07/12 00:38:16;;;;;;;0.60;0.60;;;;;;;16.27;73.97;100005.38;6238969;23;20032;-77
2021/07/12 00:40:42;;;;;;;1.08;1.08;;;;;;;16.23;74.08;100008.75;6217694;23;20379;-76
2021/07/12 00:43:07;;;;;;;1.13;1.02;;;;;;;16.22;73.94;99998.03;6188114;23;20004;-77
2021/07/12 00:45:35;;;;;;;0.80;0.80;;;;;;;16.22;73.99;99998.88;6187093;23;20008;-76
2021/07/12 00:48:01;;;;;;;0.88;0.88;;;;;;;16.20;73.67;99994.78;6189192;23;20008;-77
2021/07/12 00:50:30;;;;;;;0.60;0.60;;;;;;;16.16;73.79;99997.34;6214308;23;20326;-76
2021/07/12 00:52:56;;;;;;;2.00;0.60;;;;;;;16.13;74.06;99995.22;6242043;23;20000;-76
2021/07/12 00:55:27;;;;;;;0.50;0.50;;;;;;;16.08;73.95;99989.00;6216507;23;20012;-77
2021/07/12 00:57:53;;;;;;;0.30;0.30;;;;;;;16.08;73.99;99995.34;6212897;23;20003;-76
2021/07/12 01:00:20;;;;;;;1.13;0.93;;;;;;;16.05;74.17;99990.47;6216858;23;20100;-77
2021/07/12 01:02:46;;;;;;;0.43;0.43;;;;;;;16.04;74.48;99991.59;6209866;23;20079;-77
2021/07/12 01:05:15;;;;;;;0.50;0.50;;;;;;;16.03;74.29;99992.72;6208814;23;20030;-77
2021/07/12 01:07:42;;;;;;;0.75;0.50;;;;;;;16.01;74.00;99994.97;6215936;23;20008;-77
2021/07/12 01:10:09;;;;;;;0.75;0.50;;;;;;;16.00;74.15;99993.34;6218152;23;20011;-77
2021/07/12 01:13:09;;;;;;;0.57;0.57;;;;;;;16.04;74.27;99989.63;6213903;23;20012;-77
2021/07/12 01:15:42;;;;;;;0.47;0.47;;;;;;;16.01;73.84;99982.00;6215075;23;20012;-77
2021/07/12 01:18:22;;;;;;;0.60;0.60;;;;;;;16.01;74.17;99986.69;6203555;23;20004;-77
2021/07/12 01:21:16;;;;;;;0.45;0.45;;;;;;;15.98;74.15;99979.06;6215188;23;20416;-75
2021/07/12 01:24:09;;;;;;;0.50;0.50;;;;;;;15.97;73.92;99978.22;6218036;23;20008;-76
2021/07/12 01:27:05;;;;;;;0.60;0.57;;;;;;;15.92;74.09;99983.88;6243284;23;20430;-76
2021/07/12 01:30:24;;;;;;;0.40;0.40;;;;;;;15.93;74.13;99981.94;6215943;23;20036;-77
2021/07/12 01:33:09;;;;;;;0.70;0.70;;;;;;;15.93;74.41;99971.72;6144947;23;20097;-77
2021/07/12 01:36:03;;;;;;;0.47;0.47;;;;;;;15.97;74.58;99971.91;6120330;23;20090;-75
2021/07/12 01:38:35;;;;;;;0.38;0.32;;;;;;;15.96;74.15;99984.06;6219229;23;20327;-76
2021/07/12 01:41:08;;;;;;;0.40;0.40;;;;;;;15.96;74.47;99981.28;6223073;23;20008;-75
2021/07/12 01:43:43;;;;;;;0.22;0.22;;;;;;;15.97;74.22;99988.44;6254537;23;20476;-75
2021/07/12 01:46:32;;;;;;;0.22;0.22;;;;;;;16.02;74.19;99974.56;6246561;23;20334;-76
2021/07/12 01:49:01;;;;;;;0.20;0.20;;;;;;;16.00;74.16;99965.75;6197274;23;20009;-74
2021/07/12 01:51:52;;;;;;;0.30;0.20;;;;;;;16.03;74.25;99965.97;6244117;23;20004;-74
2021/07/12 01:54:44;;;;;;;0.30;0.30;;;;;;;16.07;74.09;99965.34;6248505;23;20008;-74
2021/07/12 01:57:23;;;;;;;0.35;0.35;;;;;;;16.07;74.16;99966.13;6224891;23;20052;-75
2021/07/12 02:00:07;;;;;;;0.30;0.30;;;;;;;16.09;74.26;99954.78;6247047;23;20008;-74
2021/07/12 02:02:33;;;;;;;0.30;0.30;;;;;;;16.04;74.04;99959.28;6243274;23;20778;-75
2021/07/12 02:05:11;;;;;;;0.45;0.38;;;;;;;16.03;74.38;99954.09;6214537;23;20004;-74
2021/07/12 02:07:38;;;;;;;0.47;0.47;;;;;;;16.04;74.07;99951.03;6215267;23;20052;-75
2021/07/12 02:10:05;;;;;;;0.40;0.40;;;;;;;16.01;74.08;99939.81;6238672;23;20019;-76
2021/07/12 02:12:33;;;;;;;0.40;0.40;;;;;;;16.03;74.18;99941.16;6239881;23;20079;-75
2021/07/12 02:15:01;;;;;;;0.55;0.55;;;;;;;16.05;74.04;99938.06;6216135;23;20403;-76
2021/07/12 02:17:28;;;;;;;2.70;0.45;;;;;;;16.06;74.15;99942.44;6238367;23;20008;-75
2021/07/12 02:19:58;;;;;;;0.55;0.55;;;;;;;16.04;74.49;99939.19;6218793;23;20019;-75
2021/07/12 02:22:24;;;;;;;0.60;0.60;;;;;;;16.07;74.40;99948.78;6209173;23;20008;-75
2021/07/12 02:24:53;;;;;;;0.30;0.30;;;;;;;16.05;74.59;99940.81;6243403;23;20022;-76
2021/07/12 02:27:21;;;;;;;0.65;0.65;;;;;;;16.08;74.05;99945.72;6217129;23;20004;-75
2021/07/12 02:29:48;;;;;;;0.45;0.45;;;;;;;16.08;74.09;99934.69;6242414;23;20000;-76
2021/07/12 02:32:13;;;;;;;0.30;0.30;;;;;;;16.07;73.92;99930.28;6244005;23;20011;-77
2021/07/12 02:34:41;;;;;;;0.30;0.20;;;;;;;16.09;73.90;99941.84;6191870;23;20083;-75
2021/07/12 02:37:06;;;;;;;0.20;0.20;;;;;;;16.14;74.24;99936.16;6243230;23;20011;-75
2021/07/12 02:39:33;;;;;;;0.40;0.32;;;;;;;16.15;73.90;99935.03;6242845;23;20315;-75
2021/07/12 02:42:02;;;;;;;0.30;0.30;;;;;;;16.18;74.05;99934.41;6214708;23;20139;-75
2021/07/12 02:44:30;;;;;;;0.30;0.30;;;;;;;16.20;74.08;99934.09;6217673;23;20095;-76
2021/07/12 02:46:58;;;;;;;0.20;0.20;;;;;;;16.21;74.00;99919.97;6243484;23;20036;-75
2021/07/12 02:49:23;;;;;;;0.30;0.28;;;;;;;16.23;73.96;99926.00;6216826;23;20043;-75
2021/07/12 02:52:03;;;;;;;0.30;0.30;;;;;;;16.30;73.80;99919.22;6213548;23;20018;-74
2021/07/12 02:54:35;;;;;;;0.30;0.30;;;;;;;16.26;73.69;99918.22;6241489;23;20079;-75
2021/07/12 02:57:01;;;;;;;0.30;0.30;;;;;;;16.28;73.70;99925.06;6239599;23;20007;-75
2021/07/12 02:59:27;;;;;;;0.30;0.30;;;;;;;16.28;73.78;99921.47;6212512;23;20020;-76
2021/07/12 03:01:52;;;;;;;0.40;0.40;;;;;;;16.26;73.69;99918.22;6241048;23;20484;-75
2021/07/12 03:04:18;;;;;;;0.30;0.30;;;;;;;16.31;73.84;99927.19;6217708;23;20331;-75
2021/07/12 03:06:48;;;;;;;0.55;0.55;;;;;;;16.32;73.88;99922.47;6242713;23;20012;-74
2021/07/12 03:09:22;;;;;;;0.43;0.43;;;;;;;16.33;73.82;99918.59;6216201;23;20081;-77
2021/07/12 03:11:53;;;;;;;0.50;0.50;;;;;;;16.35;73.89;99905.28;6244406;23;20011;-76
2021/07/12 03:14:37;;;;;;;0.75;0.75;;;;;;;16.35;73.79;99902.53;6216156;23;20011;-76
2021/07/12 03:17:05;;;;;;;0.40;0.40;;;;;;;16.32;73.70;99903.16;6216492;23;20004;-75
2021/07/12 03:19:34;;;;;;;0.73;0.73;;;;;;;16.34;73.83;99898.13;6215159;23;19996;-75
2021/07/12 03:22:03;;;;;;;0.55;0.55;;;;;;;16.29;73.61;99901.03;6247638;23;20011;-77
2021/07/12 03:24:30;;;;;;;0.77;0.77;;;;;;;16.34;73.64;99898.97;6252230;23;20011;-75
2021/07/12 03:26:57;;;;;;;0.50;0.50;;;;;;;16.34;73.79;99903.66;6252658;23;20004;-75
2021/07/12 03:29:26;;;;;;;0.63;0.63;;;;;;;16.30;73.66;99897.16;6215617;23;20008;-79
2021/07/12 03:31:52;;;;;;;0.40;0.40;;;;;;;16.35;73.92;99899.75;6243689;23;20465;-76
2021/07/12 03:34:19;;;;;;;0.43;0.43;;;;;;;16.33;73.88;99897.31;6242787;23;19992;-76
2021/07/12 03:36:48;;;;;;;0.63;0.63;;;;;;;16.34;73.71;99903.66;6205236;23;20403;-77
2021/07/12 03:39:14;;;;;;;1.15;1.05;;;;;;;16.30;73.74;99897.97;6242929;23;20000;-76
2021/07/12 03:41:42;;;;;;;0.57;0.57;;;;;;;16.32;74.02;99894.88;6188428;23;20015;-77
2021/07/12 03:44:08;;;;;;;0.60;0.60;;;;;;;16.34;73.93;99903.66;6212963;23;20007;-79
2021/07/12 03:46:35;;;;;;;0.70;0.70;;;;;;;16.26;73.79;99890.63;6213085;23;20813;-80
2021/07/12 03:49:13;;;;;;;0.52;0.52;;;;;;;16.31;73.97;99901.53;6193588;23;20501;-79
2021/07/12 03:51:39;;;;;;;0.60;0.60;;;;;;;16.30;73.81;99906.25;6214987;23;20000;-76
2021/07/12 03:54:06;;;;;;;0.70;0.70;;;;;;;16.28;73.71;99893.88;6242455;23;20000;-75
2021/07/12 03:56:32;;;;;;;0.80;0.80;;;;;;;16.26;74.03;99896.97;6244578;23;20004;-76
2021/07/12 03:58:59;;;;;;;0.60;0.60;;;;;;;16.33;73.94;99902.03;6210753;23;20043;-77
2021/07/12 04:01:27;;;;;;;0.93;0.60;;;;;;;16.27;74.09;99893.09;6216976;23;20316;-77
2021/07/12 04:03:56;;;;;;;0.45;0.45;;;;;;;16.30;74.13;99894.41;6243362;23;19996;-79
2021/07/12 04:06:24;;;;;;;0.90;0.90;;;;;;;16.29;73.61;99890.00;6217169;23;20003;-75
2021/07/12 04:08:51;;;;;;;0.60;0.60;;;;;;;16.29;74.07;99890.81;6243548;23;20012;-75
2021/07/12 04:11:18;;;;;;;0.40;0.40;;;;;;;16.23;74.02;99887.38;6214898;23;20250;-76
2021/07/12 04:13:46;;;;;;;0.40;0.40;;;;;;;16.20;74.00;99879.72;6245169;23;20032;-76
2021/07/12 04:16:14;;;;;;;0.75;0.20;;;;;;;16.22;73.95;99883.00;6191253;23;20016;-76
2021/07/12 04:18:40;;;;;;;0.15;0.15;;;;;;;16.32;74.24;99894.88;6216839;23;20335;-76
2021/07/12 04:21:06;;;;;;;0.30;0.30;;;;;;;16.35;74.10;99897.00;6219944;23;20019;-76
2021/07/12 04:23:34;;;;;;;0.30;0.30;;;;;;;16.34;74.10;99892.59;6245027;23;20004;-75
2021/07/12 04:26:00;;;;;;;0.40;0.40;;;;;;;16.34;73.85;99881.56;6214007;23;20008;-75
2021/07/12 04:28:25;;;;;;;3.70;0.63;;;;;;;16.37;74.20;99892.00;6244017;23;20008;-75
2021/07/12 04:30:51;;;;;;;0.50;0.50;;;;;;;16.32;74.06;99890.16;6190352;23;20034;-76
2021/07/12 04:33:16;;;;;;;0.65;0.65;;;;;;;16.26;73.85;99863.84;6241879;23;20551;-75
2021/07/12 04:35:42;;;;;;;0.85;0.47;;;;;;;16.34;73.66;99887.91;6239635;23;20008;-75
2021/07/12 04:38:09;;;;;;;4.00;1.23;;;;;;;16.33;73.83;99874.44;6189588;23;20083;-75
2021/07/12 04:40:35;;;;;;;0.40;0.30;;;;;;;16.35;74.15;99874.94;6191464;23;20070;-75
2021/07/12 04:43:03;;;;;;;0.17;0.17;;;;;;;16.39;74.21;99873.97;6185353;23;20415;-75
2021/07/12 04:45:29;;;;;;;0.35;0.35;;;;;;;16.48;73.83;99882.28;6217950;23;20381;-75
2021/07/12 04:47:54;;;;;;;0.30;0.30;;;;;;;16.47;73.91;99880.69;6211366;23;20008;-75
2021/07/12 04:50:20;;;;;;;0.30;0.30;;;;;;;16.54;73.65;99883.78;6256105;23;20023;-74
2021/07/12 04:52:45;;;;;;;0.50;0.47;;;;;;;16.58;74.08;99887.50;6205897;23;20008;-75
2021/07/12 04:55:11;;;;;;;0.47;0.47;;;;;;;16.60;73.79;99884.44;6246449;23;20004;-76
2021/07/12 04:57:37;;;;;;;0.25;0.25;;;;;;;16.66;73.46;99877.66;6216524;23;20053;-76
2021/07/12 05:00:07;;;;;;;0.40;0.40;;;;;;;16.65;73.36;99870.50;6180399;23;20024;-75
2021/07/12 05:02:33;;;;;;;0.45;0.45;;;;;;;16.73;73.63;99880.75;6185495;23;20019;-76
2021/07/12 05:04:58;;;;;;;0.80;0.80;;;;;;;16.69;73.33;99871.50;6185030;23;20099;-76
2021/07/12 05:07:25;;;;;;;0.63;0.63;;;;;;;16.79;73.23;99881.41;6186685;23;20327;-75
2021/07/12 05:09:51;;;;;;;0.63;0.43;;;;;;;16.76;73.64;99871.00;6162099;23;20443;-76
2021/07/12 05:12:18;;;;;;;0.30;0.30;;;;;;;16.82;73.41;99879.94;6210730;23;20004;-76
2021/07/12 05:14:46;;;;;;;0.50;0.50;;;;;;;16.80;73.50;99880.28;6163013;23;20007;-76
2021/07/12 05:17:12;;;;;;;0.70;0.70;;;;;;;16.88;72.77;99884.22;6212769;23;20351;-76
2021/07/12 05:19:48;;;;;;;4.63;0.80;;;;;;;16.84;73.41;99866.66;6186089;23;20012;-77
2021/07/12 05:22:14;;;;;;;0.52;0.52;;;;;;;16.77;73.13;99866.31;6210296;23;20020;-77
2021/07/12 05:24:41;;;;;;;0.52;0.52;;;;;;;16.69;73.28;99851.34;6185814;23;20008;-76
2021/07/12 05:27:07;;;;;;;0.63;0.63;;;;;;;16.84;73.18;99877.69;6183438;23;20012;-76
2021/07/12 05:29:33;;;;;;;1.20;0.70;;;;;;;16.76;73.12;99865.47;6186514;23;20015;-76
2021/07/12 05:31:59;;;;;;;0.50;0.50;;;;;;;16.72;73.10;99864.53;6186045;23;20008;-77
2021/07/12 05:34:24;;;;;;;0.75;0.75;;;;;;;16.73;72.75;99866.13;6186279;23;20004;-76
2021/07/12 05:36:52;;;;;;;0.50;0.50;;;;;;;16.65;72.80;99859.47;6187549;23;20035;-76
2021/07/12 05:39:17;;;;;;;0.50;0.50;;;;;;;16.61;73.04;99858.47;6182459;23;20396;-78
2021/07/12 05:41:55;;;;;;;;;;;;;;;;;;;;;
2021/07/12 05:44:30;;;;;;;0.68;0.68;;;;;;;16.55;73.17;99857.78;6214153;23;20088;-77
2021/07/12 05:46:55;;;;;;;0.73;0.73;;;;;;;16.51;73.21;99848.53;6189821;23;20372;-78
2021/07/12 05:49:21;;;;;;;0.70;0.70;;;;;;;16.48;72.86;99854.69;6188827;23;20008;-78
2021/07/12 05:51:47;;;;;;;2.67;1.10;;;;;;;16.56;73.48;99872.44;6215074;23;20035;-78
2021/07/12 05:54:16;;;;;;;1.10;1.00;;;;;;;16.51;73.28;99865.09;6160001;23;20484;-78
2021/07/12 05:56:41;;;;;;;1.20;0.63;;;;;;;16.45;73.29;99863.59;6187581;23;20020;-77
2021/07/12 05:59:09;;;;;;;0.52;0.52;;;;;;;16.53;73.59;99879.41;6174154;23;20104;-77
2021/07/12 06:01:34;;;;;;;3.00;1.08;;;;;;;16.46;73.57;99873.53;6209272;23;20013;-76
2021/07/12 06:04:02;;;;;;;5.13;0.90;;;;;;;16.49;73.44;99883.91;6159102;23;20078;-77
2021/07/12 06:06:27;;;;;;;0.68;0.68;;;;;;;16.53;73.20;99884.91;6213832;23;20000;-77
2021/07/12 06:08:53;;;;;;;0.60;0.60;;;;;;;16.48;73.51;99887.00;6186251;23;20009;-76
2021/07/12 06:11:21;;;;;;;0.52;0.52;;;;;;;16.54;73.72;99897.59;6189493;23;20084;-78
2021/07/12 06:13:55;;;;;;;0.47;0.47;;;;;;;16.46;73.78;99873.53;6214215;23;20283;-76
2021/07/12 06:16:21;;;;;;;0.50;0.50;;;;;;;16.51;73.67;99880.84;6187074;23;20009;-76
2021/07/12 06:18:56;;;;;;;;;;;;;;;;;;;;;
2021/07/12 06:21:25;;;;;;;1.05;1.05;;;;;;;16.48;73.77;99865.72;6214461;23;20083;-79
2021/07/12 06:24:09;;;;;;;0.50;0.50;;;;;;;16.60;73.71;99878.09;6188933;23;20474;-80
2021/07/12 06:26:39;;;;;;;0.73;0.52;;;;;;;16.55;73.31;99877.13;6213264;23;20320;-77
2021/07/12 06:29:12;;;;;;;0.40;0.40;;;;;;;16.65;73.53;99891.78;6187165;23;20136;-77
2021/07/12 06:31:38;;;;;;;0.40;0.40;;;;;;;16.64;73.67;99881.88;6214010;23;20021;-75
2021/07/12 06:34:03;;;;;;;0.40;0.40;;;;;;;16.75;73.57;99886.75;6214154;23;20032;-74
2021/07/12 06:36:29;;;;;;;0.57;0.50;;;;;;;16.83;73.34;99893.44;6215212;23;20047;-75
2021/07/12 06:38:54;;;;;;;0.30;0.30;;;;;;;16.88;73.37;99885.03;6162061;23;20147;-76
2021/07/12 06:41:20;;;;;;;0.70;0.70;;;;;;;16.88;73.75;99885.03;6158828;23;20013;-76
2021/07/12 06:43:45;;;;;;;0.20;0.20;;;;;;;16.91;73.30;99872.56;6218374;23;20060;-76
2021/07/12 06:46:16;;;;;;;0.22;0.22;;;;;;;17.02;73.71;99889.63;6222640;23;20008;-76
2021/07/12 06:48:41;;;;;;;0.30;0.30;;;;;;;17.08;73.56;99891.06;6179438;23;20058;-76
2021/07/12 06:51:09;;;;;;;0.30;0.30;;;;;;;17.20;73.15;99890.44;6160143;23;20100;-77
2021/07/12 06:53:35;;;;;;;0.50;0.50;;;;;;;17.25;72.85;99882.81;6180547;23;20091;-79
2021/07/12 06:56:03;;;;;;;0.50;0.50;;;;;;;17.38;72.85;99889.31;6161531;23;20016;-75
2021/07/12 06:58:28;;;;;;;0.63;0.63;;;;;;;17.39;72.95;99865.25;6186072;23;20013;-76
2021/07/12 07:00:54;;;;;;;0.60;0.60;;;;;;;17.48;72.45;99868.00;6185000;23;20015;-76
2021/07/12 07:03:19;;;;;;;0.55;0.55;;;;;;;17.59;72.55;99872.88;6168413;23;20008;-77
2021/07/12 07:05:47;;;;;;;0.45;0.35;;;;;;;17.73;72.84;99883.78;6187473;23;20015;-75
2021/07/12 07:08:13;;;;;;;0.40;0.40;;;;;;;17.77;72.19;99878.38;6182619;23;20008;-76
2021/07/12 07:10:41;;;;;;;0.30;0.30;;;;;;;17.92;72.40;99883.44;6212288;23;20362;-76
2021/07/12 07:13:06;;;;;;;0.30;0.30;;;;;;;18.09;72.36;99887.31;6187453;23;20015;-76
2021/07/12 07:15:32;;;;;;;0.30;0.30;;;;;;;18.12;72.06;99879.16;6215607;23;20449;-73
2021/07/12 07:17:59;;;;;;;0.20;0.20;;;;;;;18.35;72.24;99897.47;6184991;23;20013;-75
2021/07/12 07:20:27;;;;;;;0.20;0.20;;;;;;;18.42;71.75;99895.81;6215461;23;20068;-75
2021/07/12 07:22:53;;;;;;;0.20;0.20;;;;;;;18.50;71.28;99891.41;6157367;23;20005;-74
2021/07/12 07:25:18;;;;;;;0.20;0.20;;;;;;;18.70;71.30;99897.34;6187831;23;20011;-75
2021/07/12 07:27:45;;;;;;;0.30;0.30;;;;;;;18.77;71.02;99909.50;6207100;23;20424;-74
2021/07/12 07:30:12;;;;;;;0.30;0.30;;;;;;;18.75;70.79;99908.22;6186059;23;20016;-74
2021/07/12 07:32:39;;;;;;;0.30;0.30;;;;;;;18.67;70.67;99902.41;6180125;23;20428;-76
2021/07/12 07:35:06;;;;;;;0.30;0.30;;;;;;;18.70;70.78;99913.94;6213725;23;19996;-75
2021/07/12 07:37:32;;;;;;;0.80;0.80;;;;;;;18.61;70.62;99920.31;6208020;23;20039;-75
2021/07/12 07:39:57;;;;;;;0.52;0.52;;;;;;;18.52;69.94;99916.78;6213593;23;20541;-75
2021/07/12 07:42:23;;;;;;;0.80;0.80;;;;;;;18.44;70.06;99918.47;6204257;23;20024;-74
2021/07/12 07:44:48;;;;;;;0.60;0.60;;;;;;;18.35;70.45;99916.84;6208129;23;20015;-73
2021/07/12 07:47:15;;;;;;;0.30;0.30;;;;;;;18.34;70.60;99916.06;6160218;23;20457;-74
2021/07/12 07:49:41;;;;;;;0.30;0.30;;;;;;;18.35;70.67;99916.84;6183779;23;20012;-75
2021/07/12 07:52:10;;;;;;;0.32;0.32;;;;;;;18.32;70.52;99907.25;6179964;23;20080;-74
2021/07/12 07:54:35;;;;;;;0.30;0.30;;;;;;;18.34;70.62;99909.69;6181754;23;20006;-73
2021/07/12 07:57:01;;;;;;;0.60;0.60;;;;;;;18.32;70.43;99907.25;6184325;23;20420;-74
2021/07/12 07:59:34;;;;;;;0.50;0.50;;;;;;;18.29;70.33;99900.41;6207196;23;20027;-79
2021/07/12 08:01:59;;;;;;;0.35;0.35;;;;;;;18.36;69.78;99896.34;6242391;23;20026;-73
2021/07/12 08:04:25;;;;;;;2.38;0.40;;;;;;;18.46;69.93;99910.63;6227371;23;20415;-74
2021/07/12 08:06:50;;;;;;;0.30;0.30;;;;;;;18.53;70.13;99903.75;6239367;23;20061;-76
2021/07/12 08:09:16;;;;;;;0.30;0.30;;;;;;;18.58;69.76;99895.28;6178793;23;20069;-76
2021/07/12 08:11:41;;;;;;;0.50;0.50;;;;;;;18.73;69.32;99893.91;6205534;23;20085;-79
2021/07/12 08:14:07;;;;;;;0.57;0.57;;;;;;;18.82;69.41;99898.25;6214251;23;20084;-80
2021/07/12 08:16:32;;;;;;;0.50;0.50;;;;;;;18.84;68.96;99893.19;6190705;23;20394;-78
2021/07/12 08:18:58;;;;;;;0.22;0.22;;;;;;;18.93;69.06;99900.66;6242869;23;20074;-79
2021/07/12 08:21:23;;;;;;;1.30;0.63;;;;;;;19.02;68.68;99902.22;6242572;23;20657;-76
2021/07/12 08:23:49;;;;;;;0.65;0.65;;;;;;;19.11;68.42;99904.13;6215958;23;20435;-75
2021/07/12 08:26:20;;;;;;;1.13;0.52;;;;;;;19.13;68.49;99896.31;6240352;23;20299;-77
2021/07/12 08:28:48;;;;;;;0.50;0.50;;;;;;;19.18;68.20;99883.03;6243171;23;20003;-77
2021/07/12 08:31:18;;;;;;;0.40;0.40;;;;;;;19.38;68.86;99902.78;6212056;23;20027;-77
2021/07/12 08:33:44;;;;;;;0.30;0.30;;;;;;;19.56;68.35;99895.13;6190899;23;20057;-74
2021/07/12 08:36:10;;;;;;;0.38;0.38;;;;;;;19.75;68.36;99889.09;6212325;23;20012;-75
2021/07/12 08:38:36;;;;;;;0.20;0.20;;;;;;;19.88;67.56;99899.09;6216262;23;20007;-76
2021/07/12 08:41:11;;;;;;;0.22;0.22;;;;;;;20.12;67.68;99913.41;6244277;23;20442;-76
2021/07/12 08:43:39;;;;;;;1.00;0.50;;;;;;;20.13;66.51;99910.28;6217259;23;20079;-75
2021/07/12 08:46:04;;;;;;;0.55;0.55;;;;;;;20.13;66.71;99903.91;6243992;23;20015;-76
2021/07/12 08:48:40;;;;;;;1.85;0.68;;;;;;;20.24;66.58;99919.00;6213037;23;20008;-76
2021/07/12 08:51:05;;;;;;;;;;;;;;;20.51;66.18;99911.16;6212244;23;20008;-77
2021/07/12 08:53:41;;;;;;;;;;;;;;;;;;;;;
2021/07/12 08:56:12;;;;;;;0.60;0.30;;;;;;;20.54;65.69;99902.13;6217512;23;20083;-76
2021/07/12 08:58:46;;;;;;;3.63;0.40;;;;;;;20.71;65.66;99904.72;6178373;23;20336;-75
2021/07/12 09:01:14;;;;;;;0.30;0.30;;;;;;;20.80;65.29;99910.16;6186120;23;20013;-76
2021/07/12 09:03:52;;;;;;;;;;;;;;;;;;;;;
2021/07/12 09:06:32;;;;;;;0.20;0.20;;;;;;;20.91;64.72;99910.50;6213558;23;20083;-77
2021/07/12 09:09:02;;;;;;;0.30;0.30;;;;;;;20.99;64.80;99912.34;6204038;23;20026;-76
2021/07/12 09:11:29;;;;;;;0.43;0.30;;;;;;;21.21;64.78;99924.13;6214963;23;20039;-78
2021/07/12 09:14:00;;;;;;;0.10;0.10;;;;;;;21.32;64.67;99908.59;6216334;23;20324;-75
2021/07/12 09:16:51;;;;;;;0.20;0.20;;;;;;;21.61;64.54;99923.34;6220180;23;20024;-79
2021/07/12 09:19:42;;;;;;;0.10;0.10;;;;;;;21.78;64.09;99914.69;6227869;23;20000;-76
2021/07/12 09:22:17;;;;;;;0.20;0.20;;;;;;;21.82;63.99;99908.44;6218231;23;20008;-76
2021/07/12 09:24:56;;;;;;;0.10;0.10;;;;;;;21.99;63.66;99908.13;6159997;23;20024;-78
2021/07/12 09:27:24;;;;;;;0.10;0.10;;;;;;;22.17;63.06;99905.03;6185183;23;20504;-76
2021/07/12 09:29:57;;;;;;;0.10;0.10;;;;;;;22.42;63.34;99912.06;6152618;23;20103;-75
2021/07/12 09:32:25;;;;;;;0.20;0.20;;;;;;;22.49;61.97;99919.81;6158848;23;20016;-75
2021/07/12 09:35:01;;;;;;;0.20;0.20;;;;;;;22.55;62.09;99918.38;6212740;23;20023;-76
2021/07/12 09:37:29;;;;;;;0.13;0.10;;;;;;;22.50;61.76;99904.69;6211494;23;20308;-76
2021/07/12 09:39:56;;;;;;;0.10;0.10;;;;;;;22.57;62.10;99915.22;6187954;23;20004;-76
2021/07/12 09:42:25;;;;;;;0.08;0.08;;;;;;;22.63;61.96;99913.78;6184373;23;20134;-76
2021/07/12 09:44:52;;;;;;;0.63;0.10;;;;;;;22.68;60.97;99916.31;6215026;23;20439;-75
2021/07/12 09:47:20;;;;;;;0.00;0.00;;;;;;;22.64;61.30;99920.97;6208400;23;20004;-75
2021/07/12 09:49:47;;;;;;;0.00;0.00;;;;;;;22.57;61.08;99910.44;6215419;23;20374;-75
2021/07/12 09:52:17;;;;;;;0.03;0.03;;;;;;;22.57;61.12;99912.44;6214622;23;20001;-76
2021/07/12 09:54:45;;;;;;;0.10;0.10;;;;;;;22.53;60.35;99920.72;6183296;23;20020;-75
2021/07/12 09:57:17;;;;;;;0.10;0.10;;;;;;;22.43;60.68;99910.91;6230255;23;20012;-75
2021/07/12 10:00:04;;;;;;;0.10;0.10;;;;;;;22.43;61.00;99905.34;6220342;23;20074;-74
2021/07/12 10:02:32;;;;;;;0.25;0.10;;;;;;;22.31;60.24;99902.59;6225092;23;20312;-75
2021/07/12 10:05:14;;;;;;;0.20;0.20;;;;;;;22.25;60.39;99913.22;6231339;23;20007;-77
2021/07/12 10:07:42;;;;;;;0.50;0.50;;;;;;;22.22;60.29;99908.31;6229218;23;20007;-77
2021/07/12 10:10:16;;;;;;;0.52;0.50;;;;;;;22.25;60.56;99916.00;6229118;23;20004;-76
2021/07/12 10:12:43;;;;;;;0.60;0.55;;;;;;;22.28;60.48;99920.00;6252453;23;20011;-77
2021/07/12 10:15:10;;;;;;;1.02;1.02;;;;;;;22.30;60.19;99923.28;6207266;23;20026;-76
2021/07/12 10:17:36;;;;;;;1.23;1.23;;;;;;;22.25;60.77;99910.44;6206025;23;20004;-75
2021/07/12 10:20:04;;;;;;;1.83;1.73;;;;;;;22.30;60.51;99912.13;6258880;23;20004;-76
2021/07/12 10:22:34;;;;;;;2.65;2.45;;;;;;;22.44;60.03;99925.63;6253221;23;20008;-76
2021/07/12 10:25:12;;;;;;;2.13;1.98;;;;;;;22.51;60.61;99913.88;6262290;23;19995;-75
2021/07/12 10:27:55;;;;;;;2.05;1.38;;;;;;;22.70;60.02;99911.16;6227509;23;20430;-75
2021/07/12 10:30:33;;;;;;;1.02;0.90;;;;;;;22.75;59.65;99910.91;6247959;23;20460;-75
2021/07/12 10:33:01;;;;;;;1.40;0.80;;;;;;;22.91;59.78;99908.09;6222566;23;20292;-77
2021/07/12 10:35:40;;;;;;;0.80;0.80;;;;;;;23.08;59.38;99914.44;6244073;23;20000;-76
2021/07/12 10:38:08;;;;;;;0.63;0.63;;;;;;;23.16;59.14;99902.31;6231662;23;20072;-76
2021/07/12 10:41:18;;;;;;;1.17;0.70;;;;;;;23.47;58.70;99915.34;6226444;23;20008;-76
2021/07/12 10:43:50;;;;;;;0.52;0.50;;;;;;;23.51;59.52;99912.63;6126826;23;20001;-78
2021/07/12 10:46:28;;;;;;;0.50;0.50;;;;;;;23.58;59.31;99914.75;6207546;23;20046;-76
2021/07/12 10:48:55;;;;;;;0.30;0.30;;;;;;;23.57;58.58;99913.13;6219312;23;20515;-76
2021/07/12 10:51:22;;;;;;;0.08;0.08;;;;;;;23.61;58.40;99912.03;6226049;23;20004;-76
2021/07/12 10:54:14;;;;;;;0.38;0.28;;;;;;;23.74;58.95;99911.88;6230565;23;20083;-74
2021/07/12 10:56:52;;;;;;;0.10;0.10;;;;;;;23.82;58.37;99911.66;6202803;23;20012;-76
2021/07/12 10:59:36;;;;;;;0.15;0.10;;;;;;;23.93;58.51;99905.50;6239345;22;20012;-75
2021/07/12 11:02:23;;;;;;;0.10;0.10;;;;;;;23.96;57.80;99911.19;6243703;23;20004;-76
2021/07/12 11:05:00;;;;;;;0.10;0.10;;;;;;;24.03;58.00;99910.47;6215547;23;20039;-76
2021/07/12 11:07:46;;;;;;;0.20;0.20;;;;;;;24.12;57.52;99913.03;6216516;23;20004;-75
2021/07/12 11:10:28;;;;;;;0.10;0.10;;;;;;;24.16;57.28;99911.13;6236865;23;20028;-74
2021/07/12 11:12:57;;;;;;;0.10;0.10;;;;;;;24.21;57.19;99917.22;6243381;23;20000;-75
2021/07/12 11:15:22;;;;;;;0.35;0.28;;;;;;;24.31;57.19;99917.78;6243893;23;20031;-75
2021/07/12 11:17:51;;;;;;;0.20;0.20;;;;;;;24.36;55.91;99918.28;6216703;23;20083;-76
2021/07/12 11:20:37;;;;;;;0.30;0.17;;;;;;;24.35;56.23;99922.25;6244021;23;20019;-76
2021/07/12 11:23:03;;;;;;;0.10;0.10;;;;;;;24.31;56.35;99926.16;6213524;23;20004;-75
2021/07/12 11:25:46;;;;;;;0.10;0.10;;;;;;;24.27;56.34;99931.69;6216559;23;20008;-75
2021/07/12 11:28:16;;;;;;;0.30;0.20;;;;;;;24.07;55.28;99930.91;6240769;23;20004;-77
2021/07/12 11:30:42;;;;;;;0.40;0.30;;;;;;;23.94;55.39;99918.28;6219635;23;20031;-75
2021/07/12 11:33:08;;;;;;;0.10;0.10;;;;;;;24.08;56.47;99932.53;6218813;23;20016;-76
2021/07/12 11:35:33;;;;;;;0.10;0.10;;;;;;;24.15;56.39;99929.88;6220060;23;20015;-75
2021/07/12 11:38:06;;;;;;;0.40;0.20;;;;;;;24.20;56.02;99920.38;6220175;23;20079;-75
2021/07/12 11:40:32;;;;;;;0.25;0.25;;;;;;;24.06;54.32;99920.91;6220060;23;20011;-76
2021/07/12 11:42:58;;;;;;;0.30;0.30;;;;;;;23.90;54.44;99912.63;6214228;23;20008;-75
2021/07/12 11:45:24;;;;;;;0.30;0.20;;;;;;;23.99;55.13;99920.78;6247785;23;20012;-75
2021/07/12 11:48:00;;;;;;;0.10;0.10;;;;;;;23.99;55.32;99913.22;6219584;23;20047;-77
2021/07/12 11:50:30;;;;;;;1.55;0.20;;;;;;;24.13;54.89;99909.88;6219947;23;20012;-75
2021/07/12 11:53:07;;;;;;;0.20;0.10;;;;;;;24.37;55.08;99913.47;6216993;23;20066;-76